Terminal Aerodrome Forecast
Issued by NWS Topeka, KS

Home | Current Version | Previous Version | Text Only | Print | Product List | Glossary On
Versions: 1 2 3 4 5 6 7 8 9 10 11 12 13 14 15
000
FTUS43 KTOP 162300
TAFTOP
TAF
KTOP 162325Z 1700/1724 13003KT P6SM FEW050 SCT120
     FM170900 14004KT 4SM TSRA BKN015CB
     FM171100 15004KT 6SM BR BKN012
     FM171200 15004KT 3SM BR BKN009
     FM171600 16005KT 6SM BR BKN014
     FM171800 16005KT P6SM SCT015 BKN250=

USA.gov is the U.S. government's official web portal to all federal, state and local government web resources and services.